sensor_id;sensor_type;location;lat;lon;timestamp;P1;durP1;ratioP1;P2;durP2;ratioP2
4290;SDS011;2159;50.906;7.152;2022-09-03T00:01:09;1.40;;;1.40;;
4290;SDS011;2159;50.906;7.152;2022-09-03T00:03:41;2.00;;;1.50;;
4290;SDS011;2159;50.906;7.152;2022-09-03T00:06:12;2.40;;;1.50;;
4290;SDS011;2159;50.906;7.152;2022-09-03T00:08:42;1.53;;;1.43;;
4290;SDS011;2159;50.906;7.152;2022-09-03T00:11:11;1.53;;;1.50;;
4290;SDS011;2159;50.906;7.152;2022-09-03T00:13:44;2.87;;;1.30;;
4290;SDS011;2159;50.906;7.152;2022-09-03T00:16:13;1.67;;;1.50;;
4290;SDS011;2159;50.906;7.152;2022-09-03T00:18:44;2.60;;;1.63;;
4290;SDS011;2159;50.906;7.152;2022-09-03T00:21:14;4.70;;;1.50;;
4290;SDS011;2159;50.906;7.152;2022-09-03T00:23:42;1.60;;;1.50;;
4290;SDS011;2159;50.906;7.152;2022-09-03T00:26:18;1.60;;;1.50;;
4290;SDS011;2159;50.906;7.152;2022-09-03T00:28:53;1.30;;;1.30;;
4290;SDS011;2159;50.906;7.152;2022-09-03T00:31:24;1.47;;;1.47;;
4290;SDS011;2159;50.906;7.152;2022-09-03T00:33:55;3.60;;;1.50;;
4290;SDS011;2159;50.906;7.152;2022-09-03T00:36:27;1.63;;;1.60;;
4290;SDS011;2159;50.906;7.152;2022-09-03T00:38:57;1.50;;;1.40;;
4290;SDS011;2159;50.906;7.152;2022-09-03T00:41:28;2.73;;;1.40;;
4290;SDS011;2159;50.906;7.152;2022-09-03T00:44:03;3.17;;;1.60;;
4290;SDS011;2159;50.906;7.152;2022-09-03T00:46:34;1.53;;;1.43;;
4290;SDS011;2159;50.906;7.152;2022-09-03T00:49:13;1.50;;;1.50;;
4290;SDS011;2159;50.906;7.152;2022-09-03T00:51:47;1.67;;;1.57;;
4290;SDS011;2159;50.906;7.152;2022-09-03T00:54:18;1.40;;;1.40;;
4290;SDS011;2159;50.906;7.152;2022-09-03T00:56:47;2.50;;;1.60;;
4290;SDS011;2159;50.906;7.152;2022-09-03T00:59:19;1.60;;;1.50;;
4290;SDS011;2159;50.906;7.152;2022-09-03T01:01:53;2.37;;;1.60;;
4290;SDS011;2159;50.906;7.152;2022-09-03T01:04:28;1.60;;;1.50;;
4290;SDS011;2159;50.906;7.152;2022-09-03T01:07:03;1.40;;;1.40;;
4290;SDS011;2159;50.906;7.152;2022-09-03T01:09:38;1.57;;;1.50;;
4290;SDS011;2159;50.906;7.152;2022-09-03T01:12:10;1.50;;;1.40;;
4290;SDS011;2159;50.906;7.152;2022-09-03T01:14:44;2.13;;;1.30;;
4290;SDS011;2159;50.906;7.152;2022-09-03T01:17:15;1.57;;;1.47;;
4290;SDS011;2159;50.906;7.152;2022-09-03T01:22:49;1.67;;;1.57;;
4290;SDS011;2159;50.906;7.152;2022-09-03T01:25:24;1.40;;;1.40;;
4290;SDS011;2159;50.906;7.152;2022-09-03T01:28:02;1.80;;;1.37;;
4290;SDS011;2159;50.906;7.152;2022-09-03T01:30:35;2.50;;;1.50;;
4290;SDS011;2159;50.906;7.152;2022-09-03T01:33:06;3.27;;;1.30;;
4290;SDS011;2159;50.906;7.152;2022-09-03T01:35:36;2.00;;;1.30;;
4290;SDS011;2159;50.906;7.152;2022-09-03T01:38:11;1.70;;;1.60;;
4290;SDS011;2159;50.906;7.152;2022-09-03T01:40:44;2.40;;;1.43;;
4290;SDS011;2159;50.906;7.152;2022-09-03T01:43:26;1.70;;;1.60;;
4290;SDS011;2159;50.906;7.152;2022-09-03T01:46:02;1.53;;;1.43;;
4290;SDS011;2159;50.906;7.152;2022-09-03T01:48:38;2.30;;;1.30;;
4290;SDS011;2159;50.906;7.152;2022-09-03T01:51:10;1.90;;;1.80;;
4290;SDS011;2159;50.906;7.152;2022-09-03T01:53:44;2.40;;;1.43;;
4290;SDS011;2159;50.906;7.152;2022-09-03T01:56:21;2.43;;;1.43;;
4290;SDS011;2159;50.906;7.152;2022-09-03T01:58:55;1.27;;;1.27;;
4290;SDS011;2159;50.906;7.152;2022-09-03T02:01:29;1.93;;;1.67;;
4290;SDS011;2159;50.906;7.152;2022-09-03T02:03:58;6.53;;;1.50;;
4290;SDS011;2159;50.906;7.152;2022-09-03T02:06:25;1.63;;;1.53;;
4290;SDS011;2159;50.906;7.152;2022-09-03T02:08:54;1.97;;;1.47;;
4290;SDS011;2159;50.906;7.152;2022-09-03T02:11:22;1.47;;;1.37;;
4290;SDS011;2159;50.906;7.152;2022-09-03T02:13:51;1.30;;;1.30;;
4290;SDS011;2159;50.906;7.152;2022-09-03T02:16:21;2.47;;;1.30;;
4290;SDS011;2159;50.906;7.152;2022-09-03T02:18:50;1.90;;;1.30;;
4290;SDS011;2159;50.906;7.152;2022-09-03T02:21:19;1.40;;;1.30;;
4290;SDS011;2159;50.906;7.152;2022-09-03T02:23:47;1.30;;;1.30;;
4290;SDS011;2159;50.906;7.152;2022-09-03T02:26:15;1.83;;;1.30;;
4290;SDS011;2159;50.906;7.152;2022-09-03T02:28:44;1.50;;;1.40;;
4290;SDS011;2159;50.906;7.152;2022-09-03T02:31:12;1.27;;;1.23;;
4290;SDS011;2159;50.906;7.152;2022-09-03T02:33:41;1.70;;;1.60;;
4290;SDS011;2159;50.906;7.152;2022-09-03T02:36:12;1.50;;;1.40;;
4290;SDS011;2159;50.906;7.152;2022-09-03T02:38:40;3.33;;;1.70;;
4290;SDS011;2159;50.906;7.152;2022-09-03T02:41:08;1.53;;;1.43;;
4290;SDS011;2159;50.906;7.152;2022-09-03T02:43:41;1.60;;;1.50;;
4290;SDS011;2159;50.906;7.152;2022-09-03T02:46:11;1.60;;;1.50;;
4290;SDS011;2159;50.906;7.152;2022-09-03T02:48:42;3.30;;;1.47;;
4290;SDS011;2159;50.906;7.152;2022-09-03T02:51:10;1.73;;;1.30;;
4290;SDS011;2159;50.906;7.152;2022-09-03T02:53:39;1.60;;;1.50;;
4290;SDS011;2159;50.906;7.152;2022-09-03T02:56:07;2.93;;;1.47;;
4290;SDS011;2159;50.906;7.152;2022-09-03T02:58:35;2.83;;;1.30;;
4290;SDS011;2159;50.906;7.152;2022-09-03T03:01:02;1.60;;;1.50;;
4290;SDS011;2159;50.906;7.152;2022-09-03T03:03:30;2.10;;;1.50;;
4290;SDS011;2159;50.906;7.152;2022-09-03T03:06:00;2.90;;;1.50;;
4290;SDS011;2159;50.906;7.152;2022-09-03T03:08:28;4.73;;;1.30;;
4290;SDS011;2159;50.906;7.152;2022-09-03T03:10:58;1.60;;;1.53;;
4290;SDS011;2159;50.906;7.152;2022-09-03T03:13:26;1.37;;;1.37;;
4290;SDS011;2159;50.906;7.152;2022-09-03T03:15:54;4.20;;;1.30;;
4290;SDS011;2159;50.906;7.152;2022-09-03T03:18:22;1.17;;;1.17;;
4290;SDS011;2159;50.906;7.152;2022-09-03T03:20:50;1.37;;;1.27;;
4290;SDS011;2159;50.906;7.152;2022-09-03T03:23:19;1.57;;;1.47;;
4290;SDS011;2159;50.906;7.152;2022-09-03T03:25:47;1.27;;;1.27;;
4290;SDS011;2159;50.906;7.152;2022-09-03T03:28:14;2.10;;;1.47;;
4290;SDS011;2159;50.906;7.152;2022-09-03T03:30:44;1.30;;;1.20;;
4290;SDS011;2159;50.906;7.152;2022-09-03T03:33:13;2.93;;;1.40;;
4290;SDS011;2159;50.906;7.152;2022-09-03T03:35:41;4.50;;;1.50;;
4290;SDS011;2159;50.906;7.152;2022-09-03T03:38:09;1.40;;;1.30;;
4290;SDS011;2159;50.906;7.152;2022-09-03T03:40:38;1.40;;;1.40;;
4290;SDS011;2159;50.906;7.152;2022-09-03T03:43:05;1.70;;;1.43;;
4290;SDS011;2159;50.906;7.152;2022-09-03T03:45:33;4.17;;;1.30;;
4290;SDS011;2159;50.906;7.152;2022-09-03T03:48:01;1.87;;;1.60;;
4290;SDS011;2159;50.906;7.152;2022-09-03T03:50:28;1.43;;;1.30;;
4290;SDS011;2159;50.906;7.152;2022-09-03T03:52:57;1.40;;;1.40;;
4290;SDS011;2159;50.906;7.152;2022-09-03T03:55:25;1.50;;;1.40;;
4290;SDS011;2159;50.906;7.152;2022-09-03T03:57:54;2.40;;;1.53;;
4290;SDS011;2159;50.906;7.152;2022-09-03T04:00:21;1.30;;;1.30;;
4290;SDS011;2159;50.906;7.152;2022-09-03T04:02:49;1.40;;;1.40;;
4290;SDS011;2159;50.906;7.152;2022-09-03T04:05:18;2.13;;;1.40;;
4290;SDS011;2159;50.906;7.152;2022-09-03T04:07:49;3.00;;;1.70;;
4290;SDS011;2159;50.906;7.152;2022-09-03T04:10:16;2.47;;;1.50;;
4290;SDS011;2159;50.906;7.152;2022-09-03T04:12:44;2.40;;;1.50;;
4290;SDS011;2159;50.906;7.152;2022-09-03T04:15:13;2.60;;;1.30;;
4290;SDS011;2159;50.906;7.152;2022-09-03T04:17:40;7.67;;;2.60;;
4290;SDS011;2159;50.906;7.152;2022-09-03T04:20:09;2.53;;;1.67;;
4290;SDS011;2159;50.906;7.152;2022-09-03T04:22:36;2.20;;;1.60;;
4290;SDS011;2159;50.906;7.152;2022-09-03T04:25:04;2.30;;;1.33;;
4290;SDS011;2159;50.906;7.152;2022-09-03T04:27:32;1.77;;;1.67;;
4290;SDS011;2159;50.906;7.152;2022-09-03T04:29:59;1.60;;;1.50;;
4290;SDS011;2159;50.906;7.152;2022-09-03T04:32:30;1.63;;;1.53;;
4290;SDS011;2159;50.906;7.152;2022-09-03T04:35:17;1.50;;;1.40;;
4290;SDS011;2159;50.906;7.152;2022-09-03T04:37:46;1.97;;;1.80;;
4290;SDS011;2159;50.906;7.152;2022-09-03T04:40:13;1.70;;;1.40;;
4290;SDS011;2159;50.906;7.152;2022-09-03T04:42:41;1.60;;;1.50;;
4290;SDS011;2159;50.906;7.152;2022-09-03T04:45:09;1.70;;;1.60;;
4290;SDS011;2159;50.906;7.152;2022-09-03T04:47:38;3.10;;;1.40;;
4290;SDS011;2159;50.906;7.152;2022-09-03T04:50:06;1.63;;;1.50;;
4290;SDS011;2159;50.906;7.152;2022-09-03T04:52:34;1.50;;;1.47;;
4290;SDS011;2159;50.906;7.152;2022-09-03T04:55:04;1.60;;;1.50;;
4290;SDS011;2159;50.906;7.152;2022-09-03T04:57:32;2.63;;;1.50;;
4290;SDS011;2159;50.906;7.152;2022-09-03T05:00:03;1.60;;;1.50;;
4290;SDS011;2159;50.906;7.152;2022-09-03T05:02:32;1.47;;;1.47;;
4290;SDS011;2159;50.906;7.152;2022-09-03T05:05:03;4.00;;;1.50;;
4290;SDS011;2159;50.906;7.152;2022-09-03T05:07:31;1.87;;;1.67;;
4290;SDS011;2159;50.906;7.152;2022-09-03T05:10:04;1.40;;;1.30;;
4290;SDS011;2159;50.906;7.152;2022-09-03T05:12:32;1.90;;;1.80;;
4290;SDS011;2159;50.906;7.152;2022-09-03T05:14:59;1.60;;;1.50;;
4290;SDS011;2159;50.906;7.152;2022-09-03T05:17:27;1.60;;;1.50;;
4290;SDS011;2159;50.906;7.152;2022-09-03T05:19:55;2.70;;;1.53;;
4290;SDS011;2159;50.906;7.152;2022-09-03T05:22:24;1.30;;;1.30;;
4290;SDS011;2159;50.906;7.152;2022-09-03T05:24:52;1.53;;;1.40;;
4290;SDS011;2159;50.906;7.152;2022-09-03T05:27:21;1.30;;;1.30;;
4290;SDS011;2159;50.906;7.152;2022-09-03T05:29:49;1.30;;;1.30;;
4290;SDS011;2159;50.906;7.152;2022-09-03T05:32:16;1.50;;;1.40;;
4290;SDS011;2159;50.906;7.152;2022-09-03T05:34:44;1.47;;;1.37;;
4290;SDS011;2159;50.906;7.152;2022-09-03T05:37:11;1.40;;;1.40;;
4290;SDS011;2159;50.906;7.152;2022-09-03T05:39:40;2.87;;;1.37;;
4290;SDS011;2159;50.906;7.152;2022-09-03T05:42:08;1.30;;;1.20;;
4290;SDS011;2159;50.906;7.152;2022-09-03T05:44:36;1.60;;;1.50;;
4290;SDS011;2159;50.906;7.152;2022-09-03T05:47:04;1.83;;;1.40;;
4290;SDS011;2159;50.906;7.152;2022-09-03T05:49:32;1.90;;;1.30;;
4290;SDS011;2159;50.906;7.152;2022-09-03T05:52:00;1.50;;;1.50;;
4290;SDS011;2159;50.906;7.152;2022-09-03T05:54:28;2.90;;;1.40;;
4290;SDS011;2159;50.906;7.152;2022-09-03T05:56:57;1.57;;;1.40;;
4290;SDS011;2159;50.906;7.152;2022-09-03T05:59:24;2.07;;;1.70;;
4290;SDS011;2159;50.906;7.152;2022-09-03T06:01:52;1.20;;;1.20;;
4290;SDS011;2159;50.906;7.152;2022-09-03T06:04:25;4.57;;;1.60;;
4290;SDS011;2159;50.906;7.152;2022-09-03T06:06:52;1.53;;;1.50;;
4290;SDS011;2159;50.906;7.152;2022-09-03T06:09:20;1.40;;;1.30;;
4290;SDS011;2159;50.906;7.152;2022-09-03T06:11:49;1.60;;;1.50;;
4290;SDS011;2159;50.906;7.152;2022-09-03T06:14:19;2.00;;;1.60;;
4290;SDS011;2159;50.906;7.152;2022-09-03T06:16:47;2.53;;;1.40;;
4290;SDS011;2159;50.906;7.152;2022-09-03T06:19:15;3.27;;;1.37;;
4290;SDS011;2159;50.906;7.152;2022-09-03T06:21:43;3.17;;;1.57;;
4290;SDS011;2159;50.906;7.152;2022-09-03T06:24:11;1.67;;;1.57;;
4290;SDS011;2159;50.906;7.152;2022-09-03T06:26:40;3.20;;;1.60;;
4290;SDS011;2159;50.906;7.152;2022-09-03T06:29:08;2.10;;;1.50;;
4290;SDS011;2159;50.906;7.152;2022-09-03T06:31:37;1.70;;;1.60;;
4290;SDS011;2159;50.906;7.152;2022-09-03T06:34:05;1.40;;;1.30;;
4290;SDS011;2159;50.906;7.152;2022-09-03T06:36:33;64.23;;;5.27;;
4290;SDS011;2159;50.906;7.152;2022-09-03T06:39:01;4.23;;;1.50;;
4290;SDS011;2159;50.906;7.152;2022-09-03T06:41:29;2.10;;;1.33;;
4290;SDS011;2159;50.906;7.152;2022-09-03T06:44:01;2.50;;;1.73;;
4290;SDS011;2159;50.906;7.152;2022-09-03T06:46:29;4.83;;;1.77;;
4290;SDS011;2159;50.906;7.152;2022-09-03T06:48:58;1.90;;;1.30;;
4290;SDS011;2159;50.906;7.152;2022-09-03T06:51:27;1.50;;;1.50;;
4290;SDS011;2159;50.906;7.152;2022-09-03T06:53:58;1.60;;;1.50;;
4290;SDS011;2159;50.906;7.152;2022-09-03T06:56:26;2.03;;;1.43;;
4290;SDS011;2159;50.906;7.152;2022-09-03T06:58:54;1.70;;;1.60;;
4290;SDS011;2159;50.906;7.152;2022-09-03T07:01:22;1.90;;;1.80;;
4290;SDS011;2159;50.906;7.152;2022-09-03T07:03:51;2.03;;;1.33;;
4290;SDS011;2159;50.906;7.152;2022-09-03T07:06:22;1.60;;;1.33;;
4290;SDS011;2159;50.906;7.152;2022-09-03T07:08:51;3.40;;;1.40;;
4290;SDS011;2159;50.906;7.152;2022-09-03T07:11:22;1.73;;;1.67;;
4290;SDS011;2159;50.906;7.152;2022-09-03T07:13:50;3.50;;;1.40;;
4290;SDS011;2159;50.906;7.152;2022-09-03T07:16:18;3.07;;;1.80;;
4290;SDS011;2159;50.906;7.152;2022-09-03T07:18:46;1.70;;;1.60;;
4290;SDS011;2159;50.906;7.152;2022-09-03T07:21:15;1.70;;;1.60;;
4290;SDS011;2159;50.906;7.152;2022-09-03T07:23:45;2.13;;;1.60;;
4290;SDS011;2159;50.906;7.152;2022-09-03T07:26:14;1.40;;;1.40;;
4290;SDS011;2159;50.906;7.152;2022-09-03T07:28:42;1.63;;;1.43;;
4290;SDS011;2159;50.906;7.152;2022-09-03T07:31:11;1.50;;;1.40;;
4290;SDS011;2159;50.906;7.152;2022-09-03T07:33:40;1.50;;;1.43;;
4290;SDS011;2159;50.906;7.152;2022-09-03T07:36:08;1.50;;;1.40;;
4290;SDS011;2159;50.906;7.152;2022-09-03T07:38:36;1.60;;;1.50;;
4290;SDS011;2159;50.906;7.152;2022-09-03T07:41:06;1.63;;;1.53;;
4290;SDS011;2159;50.906;7.152;2022-09-03T07:43:35;1.50;;;1.50;;
4290;SDS011;2159;50.906;7.152;2022-09-03T07:46:03;1.60;;;1.50;;
4290;SDS011;2159;50.906;7.152;2022-09-03T07:48:32;2.50;;;1.50;;
4290;SDS011;2159;50.906;7.152;2022-09-03T07:51:02;1.80;;;1.30;;
4290;SDS011;2159;50.906;7.152;2022-09-03T07:53:30;1.40;;;1.40;;
4290;SDS011;2159;50.906;7.152;2022-09-03T07:56:01;4.97;;;1.50;;
4290;SDS011;2159;50.906;7.152;2022-09-03T07:58:30;1.57;;;1.47;;
4290;SDS011;2159;50.906;7.152;2022-09-03T08:00:58;1.63;;;1.43;;
4290;SDS011;2159;50.906;7.152;2022-09-03T08:03:26;4.73;;;1.63;;
4290;SDS011;2159;50.906;7.152;2022-09-03T08:05:53;7.07;;;1.50;;
4290;SDS011;2159;50.906;7.152;2022-09-03T08:08:26;4.47;;;1.50;;
4290;SDS011;2159;50.906;7.152;2022-09-03T08:11:04;1.60;;;1.50;;
4290;SDS011;2159;50.906;7.152;2022-09-03T08:13:38;1.70;;;1.60;;
4290;SDS011;2159;50.906;7.152;2022-09-03T08:16:06;1.40;;;1.40;;
4290;SDS011;2159;50.906;7.152;2022-09-03T08:18:34;1.57;;;1.50;;
4290;SDS011;2159;50.906;7.152;2022-09-03T08:21:04;5.40;;;1.53;;
4290;SDS011;2159;50.906;7.152;2022-09-03T08:23:35;4.57;;;1.60;;
4290;SDS011;2159;50.906;7.152;2022-09-03T08:26:03;3.03;;;1.40;;
4290;SDS011;2159;50.906;7.152;2022-09-03T08:28:32;2.93;;;1.50;;
4290;SDS011;2159;50.906;7.152;2022-09-03T08:31:05;2.70;;;1.70;;
4290;SDS011;2159;50.906;7.152;2022-09-03T08:33:33;2.97;;;1.73;;
4290;SDS011;2159;50.906;7.152;2022-09-03T08:36:08;1.73;;;1.63;;
4290;SDS011;2159;50.906;7.152;2022-09-03T08:38:38;1.93;;;1.83;;
4290;SDS011;2159;50.906;7.152;2022-09-03T08:41:06;1.70;;;1.60;;
4290;SDS011;2159;50.906;7.152;2022-09-03T08:43:49;1.60;;;1.50;;
4290;SDS011;2159;50.906;7.152;2022-09-03T08:46:22;1.70;;;1.60;;
4290;SDS011;2159;50.906;7.152;2022-09-03T08:48:54;3.53;;;1.70;;
4290;SDS011;2159;50.906;7.152;2022-09-03T08:51:24;3.37;;;1.80;;
4290;SDS011;2159;50.906;7.152;2022-09-03T08:53:53;1.90;;;1.80;;
4290;SDS011;2159;50.906;7.152;2022-09-03T08:56:23;1.90;;;1.80;;
4290;SDS011;2159;50.906;7.152;2022-09-03T08:58:51;2.73;;;2.10;;
4290;SDS011;2159;50.906;7.152;2022-09-03T09:01:25;6.33;;;2.00;;
4290;SDS011;2159;50.906;7.152;2022-09-03T09:04:01;2.00;;;1.90;;
4290;SDS011;2159;50.906;7.152;2022-09-03T09:06:32;4.60;;;1.90;;
4290;SDS011;2159;50.906;7.152;2022-09-03T09:09:04;4.10;;;1.73;;
4290;SDS011;2159;50.906;7.152;2022-09-03T09:11:39;2.40;;;2.20;;
4290;SDS011;2159;50.906;7.152;2022-09-03T09:14:10;6.60;;;2.30;;
4290;SDS011;2159;50.906;7.152;2022-09-03T09:16:44;2.50;;;2.30;;
4290;SDS011;2159;50.906;7.152;2022-09-03T09:19:20;8.23;;;2.40;;
4290;SDS011;2159;50.906;7.152;2022-09-03T09:21:52;2.57;;;2.37;;
4290;SDS011;2159;50.906;7.152;2022-09-03T09:24:23;11.70;;;2.60;;
4290;SDS011;2159;50.906;7.152;2022-09-03T09:26:53;5.53;;;2.00;;
4290;SDS011;2159;50.906;7.152;2022-09-03T09:29:22;2.20;;;2.07;;
4290;SDS011;2159;50.906;7.152;2022-09-03T09:31:51;4.00;;;2.60;;
4290;SDS011;2159;50.906;7.152;2022-09-03T09:34:19;4.33;;;2.67;;
4290;SDS011;2159;50.906;7.152;2022-09-03T09:36:47;5.23;;;2.20;;
4290;SDS011;2159;50.906;7.152;2022-09-03T09:39:15;3.17;;;2.20;;
4290;SDS011;2159;50.906;7.152;2022-09-03T09:41:43;2.67;;;2.50;;
4290;SDS011;2159;50.906;7.152;2022-09-03T09:44:18;2.50;;;2.40;;
4290;SDS011;2159;50.906;7.152;2022-09-03T09:46:45;2.70;;;2.50;;
4290;SDS011;2159;50.906;7.152;2022-09-03T09:49:29;2.60;;;2.20;;
4290;SDS011;2159;50.906;7.152;2022-09-03T09:52:01;11.00;;;2.47;;
4290;SDS011;2159;50.906;7.152;2022-09-03T09:54:29;2.63;;;2.43;;
4290;SDS011;2159;50.906;7.152;2022-09-03T09:56:57;2.33;;;2.20;;
4290;SDS011;2159;50.906;7.152;2022-09-03T09:59:25;4.73;;;2.30;;
4290;SDS011;2159;50.906;7.152;2022-09-03T10:02:01;4.40;;;2.53;;
4290;SDS011;2159;50.906;7.152;2022-09-03T10:04:31;2.40;;;2.20;;
4290;SDS011;2159;50.906;7.152;2022-09-03T10:07:00;6.40;;;2.50;;
4290;SDS011;2159;50.906;7.152;2022-09-03T10:09:29;2.40;;;2.30;;
4290;SDS011;2159;50.906;7.152;2022-09-03T10:12:02;10.43;;;2.40;;
4290;SDS011;2159;50.906;7.152;2022-09-03T10:14:35;2.20;;;1.90;;
4290;SDS011;2159;50.906;7.152;2022-09-03T10:17:08;3.23;;;2.10;;
4290;SDS011;2159;50.906;7.152;2022-09-03T10:19:40;4.07;;;2.23;;
4290;SDS011;2159;50.906;7.152;2022-09-03T10:22:30;3.97;;;2.10;;
4290;SDS011;2159;50.906;7.152;2022-09-03T10:25:02;2.03;;;1.80;;
4290;SDS011;2159;50.906;7.152;2022-09-03T10:27:31;2.70;;;1.90;;
4290;SDS011;2159;50.906;7.152;2022-09-03T10:29:58;2.27;;;2.17;;
4290;SDS011;2159;50.906;7.152;2022-09-03T10:32:29;2.90;;;2.03;;
4290;SDS011;2159;50.906;7.152;2022-09-03T10:35:09;1.90;;;1.80;;
4290;SDS011;2159;50.906;7.152;2022-09-03T10:37:41;3.03;;;1.90;;
4290;SDS011;2159;50.906;7.152;2022-09-03T10:40:15;3.00;;;1.83;;
4290;SDS011;2159;50.906;7.152;2022-09-03T10:42:45;1.93;;;1.83;;
4290;SDS011;2159;50.906;7.152;2022-09-03T10:45:17;7.07;;;2.23;;
4290;SDS011;2159;50.906;7.152;2022-09-03T10:48:00;3.40;;;2.10;;
4290;SDS011;2159;50.906;7.152;2022-09-03T10:50:32;2.17;;;2.07;;
4290;SDS011;2159;50.906;7.152;2022-09-03T10:53:04;2.00;;;1.90;;
4290;SDS011;2159;50.906;7.152;2022-09-03T10:55:39;2.20;;;2.00;;
4290;SDS011;2159;50.906;7.152;2022-09-03T10:58:12;2.53;;;2.30;;
4290;SDS011;2159;50.906;7.152;2022-09-03T11:00:46;2.20;;;2.10;;
4290;SDS011;2159;50.906;7.152;2022-09-03T11:03:26;4.27;;;2.30;;
4290;SDS011;2159;50.906;7.152;2022-09-03T11:05:59;6.50;;;2.40;;
4290;SDS011;2159;50.906;7.152;2022-09-03T11:08:29;2.50;;;2.40;;
4290;SDS011;2159;50.906;7.152;2022-09-03T11:11:03;4.00;;;2.43;;
4290;SDS011;2159;50.906;7.152;2022-09-03T11:13:36;2.40;;;2.20;;
4290;SDS011;2159;50.906;7.152;2022-09-03T11:16:07;4.30;;;2.17;;
4290;SDS011;2159;50.906;7.152;2022-09-03T11:18:40;3.33;;;2.17;;
4290;SDS011;2159;50.906;7.152;2022-09-03T11:21:11;2.20;;;2.10;;
4290;SDS011;2159;50.906;7.152;2022-09-03T11:23:40;3.30;;;2.20;;
4290;SDS011;2159;50.906;7.152;2022-09-03T11:26:12;3.23;;;2.27;;
4290;SDS011;2159;50.906;7.152;2022-09-03T11:28:41;2.33;;;2.20;;
4290;SDS011;2159;50.906;7.152;2022-09-03T11:31:16;2.53;;;1.80;;
4290;SDS011;2159;50.906;7.152;2022-09-03T11:33:45;2.67;;;2.47;;
4290;SDS011;2159;50.906;7.152;2022-09-03T11:36:20;2.43;;;2.30;;
4290;SDS011;2159;50.906;7.152;2022-09-03T11:38:49;2.47;;;2.27;;
4290;SDS011;2159;50.906;7.152;2022-09-03T11:41:22;2.43;;;2.23;;
4290;SDS011;2159;50.906;7.152;2022-09-03T11:43:51;3.10;;;2.20;;
4290;SDS011;2159;50.906;7.152;2022-09-03T11:46:28;5.60;;;2.17;;
4290;SDS011;2159;50.906;7.152;2022-09-03T11:49:08;2.40;;;2.30;;
4290;SDS011;2159;50.906;7.152;2022-09-03T11:51:37;2.07;;;1.97;;
4290;SDS011;2159;50.906;7.152;2022-09-03T11:54:22;5.90;;;2.13;;
4290;SDS011;2159;50.906;7.152;2022-09-03T11:57:02;9.77;;;4.17;;
4290;SDS011;2159;50.906;7.152;2022-09-03T11:59:35;2.40;;;2.20;;
4290;SDS011;2159;50.906;7.152;2022-09-03T12:02:04;3.67;;;2.70;;
4290;SDS011;2159;50.906;7.152;2022-09-03T12:04:33;3.00;;;2.63;;
4290;SDS011;2159;50.906;7.152;2022-09-03T12:07:24;2.17;;;2.07;;
4290;SDS011;2159;50.906;7.152;2022-09-03T12:09:57;2.03;;;1.93;;
4290;SDS011;2159;50.906;7.152;2022-09-03T12:12:31;6.07;;;2.20;;
4290;SDS011;2159;50.906;7.152;2022-09-03T12:15:03;2.93;;;2.13;;
4290;SDS011;2159;50.906;7.152;2022-09-03T12:17:32;5.90;;;2.40;;
4290;SDS011;2159;50.906;7.152;2022-09-03T12:20:01;2.37;;;2.17;;
4290;SDS011;2159;50.906;7.152;2022-09-03T12:22:35;3.13;;;2.17;;
4290;SDS011;2159;50.906;7.152;2022-09-03T12:25:07;2.30;;;2.10;;
4290;SDS011;2159;50.906;7.152;2022-09-03T12:27:37;2.50;;;2.30;;
4290;SDS011;2159;50.906;7.152;2022-09-03T12:30:13;2.20;;;2.10;;
4290;SDS011;2159;50.906;7.152;2022-09-03T12:32:41;4.67;;;2.17;;
4290;SDS011;2159;50.906;7.152;2022-09-03T12:35:12;2.20;;;2.10;;
4290;SDS011;2159;50.906;7.152;2022-09-03T12:38:01;2.40;;;2.30;;
4290;SDS011;2159;50.906;7.152;2022-09-03T12:40:33;4.20;;;2.53;;
4290;SDS011;2159;50.906;7.152;2022-09-03T12:43:25;2.53;;;2.33;;
4290;SDS011;2159;50.906;7.152;2022-09-03T12:46:13;2.70;;;2.50;;
4290;SDS011;2159;50.906;7.152;2022-09-03T12:48:45;2.50;;;2.40;;
4290;SDS011;2159;50.906;7.152;2022-09-03T12:51:33;2.47;;;2.33;;
4290;SDS011;2159;50.906;7.152;2022-09-03T12:54:23;3.10;;;2.43;;
4290;SDS011;2159;50.906;7.152;2022-09-03T12:56:52;3.80;;;2.23;;
4290;SDS011;2159;50.906;7.152;2022-09-03T12:59:20;2.73;;;2.30;;
4290;SDS011;2159;50.906;7.152;2022-09-03T13:01:50;2.40;;;2.30;;
4290;SDS011;2159;50.906;7.152;2022-09-03T13:04:19;4.13;;;2.30;;
4290;SDS011;2159;50.906;7.152;2022-09-03T13:06:49;2.17;;;2.07;;
4290;SDS011;2159;50.906;7.152;2022-09-03T13:09:18;2.20;;;2.10;;
4290;SDS011;2159;50.906;7.152;2022-09-03T13:11:48;2.53;;;2.30;;
4290;SDS011;2159;50.906;7.152;2022-09-03T13:14:17;2.70;;;2.50;;
4290;SDS011;2159;50.906;7.152;2022-09-03T13:17:04;2.40;;;2.20;;
4290;SDS011;2159;50.906;7.152;2022-09-03T13:19:38;3.20;;;2.23;;
4290;SDS011;2159;50.906;7.152;2022-09-03T13:22:08;2.70;;;2.50;;
4290;SDS011;2159;50.906;7.152;2022-09-03T13:24:41;2.80;;;2.60;;
4290;SDS011;2159;50.906;7.152;2022-09-03T13:27:15;2.60;;;2.50;;
4290;SDS011;2159;50.906;7.152;2022-09-03T13:29:56;4.83;;;2.33;;
4290;SDS011;2159;50.906;7.152;2022-09-03T13:32:29;2.80;;;2.60;;
4290;SDS011;2159;50.906;7.152;2022-09-03T13:35:01;3.67;;;2.80;;
4290;SDS011;2159;50.906;7.152;2022-09-03T13:37:34;6.03;;;2.53;;
4290;SDS011;2159;50.906;7.152;2022-09-03T13:40:09;3.23;;;2.87;;
4290;SDS011;2159;50.906;7.152;2022-09-03T13:42:43;3.60;;;3.00;;
4290;SDS011;2159;50.906;7.152;2022-09-03T13:45:20;2.53;;;2.43;;
4290;SDS011;2159;50.906;7.152;2022-09-03T13:47:50;5.13;;;2.47;;
4290;SDS011;2159;50.906;7.152;2022-09-03T13:50:37;2.50;;;2.40;;
4290;SDS011;2159;50.906;7.152;2022-09-03T13:53:07;2.93;;;2.70;;
4290;SDS011;2159;50.906;7.152;2022-09-03T13:55:36;2.27;;;2.17;;
4290;SDS011;2159;50.906;7.152;2022-09-03T13:58:10;2.40;;;2.30;;
4290;SDS011;2159;50.906;7.152;2022-09-03T14:00:44;2.67;;;2.57;;
4290;SDS011;2159;50.906;7.152;2022-09-03T14:03:16;2.73;;;2.53;;
4290;SDS011;2159;50.906;7.152;2022-09-03T14:05:54;2.63;;;2.40;;
4290;SDS011;2159;50.906;7.152;2022-09-03T14:08:27;3.53;;;2.10;;
4290;SDS011;2159;50.906;7.152;2022-09-03T14:10:59;2.43;;;2.33;;
4290;SDS011;2159;50.906;7.152;2022-09-03T14:13:35;2.40;;;2.30;;
4290;SDS011;2159;50.906;7.152;2022-09-03T14:16:05;2.80;;;2.60;;
4290;SDS011;2159;50.906;7.152;2022-09-03T14:18:36;2.57;;;2.37;;
4290;SDS011;2159;50.906;7.152;2022-09-03T14:21:07;2.50;;;2.30;;
4290;SDS011;2159;50.906;7.152;2022-09-03T14:23:39;4.37;;;2.37;;
4290;SDS011;2159;50.906;7.152;2022-09-03T14:26:14;2.50;;;2.40;;
4290;SDS011;2159;50.906;7.152;2022-09-03T14:28:45;2.37;;;2.27;;
4290;SDS011;2159;50.906;7.152;2022-09-03T14:31:16;2.57;;;2.37;;
4290;SDS011;2159;50.906;7.152;2022-09-03T14:33:50;2.60;;;2.50;;
4290;SDS011;2159;50.906;7.152;2022-09-03T14:36:22;5.63;;;2.30;;
4290;SDS011;2159;50.906;7.152;2022-09-03T14:39:02;2.40;;;2.20;;
4290;SDS011;2159;50.906;7.152;2022-09-03T14:41:40;2.73;;;2.57;;
4290;SDS011;2159;50.906;7.152;2022-09-03T14:44:22;4.00;;;2.17;;
4290;SDS011;2159;50.906;7.152;2022-09-03T14:47:00;2.40;;;2.20;;
4290;SDS011;2159;50.906;7.152;2022-09-03T14:49:43;3.87;;;2.70;;
4290;SDS011;2159;50.906;7.152;2022-09-03T14:52:17;2.60;;;2.50;;
4290;SDS011;2159;50.906;7.152;2022-09-03T14:54:56;2.80;;;2.60;;
4290;SDS011;2159;50.906;7.152;2022-09-03T14:57:32;2.80;;;2.70;;
4290;SDS011;2159;50.906;7.152;2022-09-03T15:00:06;2.63;;;2.43;;
4290;SDS011;2159;50.906;7.152;2022-09-03T15:02:47;2.47;;;2.33;;
4290;SDS011;2159;50.906;7.152;2022-09-03T15:05:19;7.20;;;2.50;;
4290;SDS011;2159;50.906;7.152;2022-09-03T15:07:55;2.73;;;2.53;;
4290;SDS011;2159;50.906;7.152;2022-09-03T15:10:26;2.60;;;2.40;;
4290;SDS011;2159;50.906;7.152;2022-09-03T15:12:58;2.80;;;2.20;;
4290;SDS011;2159;50.906;7.152;2022-09-03T15:15:29;5.20;;;2.60;;
4290;SDS011;2159;50.906;7.152;2022-09-03T15:18:01;2.20;;;2.10;;
4290;SDS011;2159;50.906;7.152;2022-09-03T15:20:31;2.60;;;2.30;;
4290;SDS011;2159;50.906;7.152;2022-09-03T15:23:13;3.30;;;2.30;;
4290;SDS011;2159;50.906;7.152;2022-09-03T15:25:47;2.60;;;2.10;;
4290;SDS011;2159;50.906;7.152;2022-09-03T15:28:16;2.00;;;1.90;;
4290;SDS011;2159;50.906;7.152;2022-09-03T15:30:48;2.30;;;2.20;;
4290;SDS011;2159;50.906;7.152;2022-09-03T15:33:20;2.37;;;2.27;;
4290;SDS011;2159;50.906;7.152;2022-09-03T15:36:05;2.30;;;2.20;;
4290;SDS011;2159;50.906;7.152;2022-09-03T15:38:36;2.60;;;2.50;;
4290;SDS011;2159;50.906;7.152;2022-09-03T15:41:08;2.20;;;2.20;;
4290;SDS011;2159;50.906;7.152;2022-09-03T15:43:36;2.30;;;2.20;;